Flight Track Log - Related Links

Times and Time Zones

All times are in EDT time to prevent confusion due to time zone crossing. See the N6812W flight status page for this flight to view local times or setup timezone preferences in your user account.

Time Position Orientation Groundspeed Altitude Reporting Facility
EDT Latitude Longitude Course Direction KTS MPH feet Rate Location/Type
Sun 03:50:55 PM 35.2670 -79.7100 280° West 149 171 14,800  Level FlightAware ADS-B
Sun 03:51:33 PM 35.2710 -79.7420 279° West 148 170 16,100 1,846 Climbing FlightAware ADS-B
Sun 03:52:13 PM 35.2760 -79.7760 280° West 154 177 17,200 1,575 Climbing FlightAware ADS-B
Sun 03:52:53 PM 35.2810 -79.8100 280° West 157 181 18,200 1,084 Climbing FlightAware ADS-B
Sun 03:53:36 PM 35.2860 -79.8460 280° West 159 183 18,700 1,500 Climbing FlightAware ADS-B
Sun 03:54:13 PM 35.2920 -79.8820 282° West 160 184 20,200 2,000 Climbing FlightAware ADS-B
Sun 03:54:51 PM 35.2970 -79.9170 280° West 161 185 21,200 1,417 Climbing FlightAware ADS-B
Sun 03:55:25 PM 35.3010 -79.9470 279° West 164 189 21,900 1,231 Climbing FlightAware ADS-B
Sun 03:56:09 PM 35.3070 -79.9870 280° West 162 186 22,800 1,159 Climbing FlightAware ADS-B
Sun 03:56:53 PM 35.3130 -80.0290 280° West 168 193 23,600 857 Climbing FlightAware ADS-B
Sun 03:57:33 PM 35.3180 -80.0660 279° West 194 223 24,000 273 Climbing FlightAware ADS-B
Sun 03:58:21 PM 35.3260 -80.1260 279° West 235 270 24,000  Level FlightAware ADS-B
Sun 03:59:03 PM 35.3340 -80.1800 280° West 246 283 24,000  Level FlightAware ADS-B
Sun 03:59:43 PM 35.3420 -80.2390 279° West 251 289 24,000  Level FlightAware ADS-B
Sun 04:00:27 PM 35.3510 -80.3000 280° West 254 292 24,000  Level FlightAware ADS-B
Sun 04:01:09 PM 35.3590 -80.3600 279° West 256 295 24,000  Level FlightAware ADS-B
Sun 04:01:45 PM 35.3670 -80.4110 281° West 257 296 24,000  Level FlightAware ADS-B
Sun 04:02:31 PM 35.3760 -80.4790 279° West 256 295 24,000  Level FlightAware ADS-B
Sun 04:03:21 PM 35.3860 -80.5490 280° West 256 295 24,000  Level FlightAware ADS-B
Sun 04:04:09 PM 35.3930 -80.6190 277° West 256 295 24,000  Level FlightAware ADS-B
Sun 04:04:50 PM 35.3940 -80.6770 271° West 256 295 24,000  Level FlightAware ADS-B
Sun 04:05:27 PM 35.3910 -80.7310 266° West 254 292 24,000  Level FlightAware ADS-B
Sun 04:06:03 PM 35.3860 -80.7830 263° West 254 292 24,000  Level FlightAware ADS-B
Sun 04:06:51 PM 35.3790 -80.8510 263° West 254 292 24,000  Level FlightAware ADS-B
Sun 04:07:20 PM 35.3740 -80.8910 261° West 254 292 24,000  Level FlightAware ADS-B
Sun 04:08:01 PM 35.3670 -80.9500 262° West 253 291 24,000  Level FlightAware ADS-B
Sun 04:08:38 PM 35.3600 -80.9990 260° West 252 290 24,000  Level FlightAware ADS-B
Sun 04:09:25 PM 35.3480 -81.0690 258° West 253 291 24,000  Level FlightAware ADS-B
Sun 04:10:03 PM 35.3360 -81.1210 254° West 252 290 24,000  Level FlightAware ADS-B
Sun 04:10:29 PM 35.3270 -81.1560 253° West 252 290 24,000  Level FlightAware ADS-B
Sun 04:11:47 PM 35.2920 -81.2600 248° West 252 290 24,000  Level FlightAware ADS-B
Sun 04:12:29 PM 35.2710 -81.3130 244° Southwest 252 290 24,000  Level FlightAware ADS-B
Sun 04:13:07 PM 35.2520 -81.3610 244° Southwest 250 288 24,000  Level FlightAware ADS-B
Sun 04:13:45 PM 35.2320 -81.4110 244° Southwest 254 292 24,000  Level FlightAware ADS-B
Sun 04:14:25 PM 35.2120 -81.4620 244° Southwest 255 293 24,000  Level FlightAware ADS-B
Sun 04:15:11 PM 35.1890 -81.5210 245° Southwest 256 295 24,000  Level FlightAware ADS-B
Sun 04:15:50 PM 35.1690 -81.5730 245° Southwest 255 293 24,000  Level FlightAware ADS-B
Sun 04:16:32 PM 35.1470 -81.6280 244° Southwest 258 297 24,000  Level FlightAware ADS-B
Sun 04:17:12 PM 35.1270 -81.6800 245° Southwest 256 295 24,000  Level FlightAware ADS-B
Sun 04:17:46 PM 35.1070 -81.7230 240° Southwest 256 295 24,000  Level FlightAware ADS-B
Sun 04:18:40 PM 35.0660 -81.7830 230° Southwest 256 295 24,000  Level FlightAware ADS-B
Sun 04:19:18 PM 35.0330 -81.8190 222° Southwest 257 296 24,000  Level FlightAware ADS-B
Sun 04:20:04 PM 34.9890 -81.8630 219° Southwest 257 296 24,000  Level FlightAware ADS-B
Sun 04:20:37 PM 34.9590 -81.8940 220° Southwest 257 296 24,000  Level FlightAware ADS-B
Sun 04:21:17 PM 34.9240 -81.9290 219° Southwest 258 297 24,000  Level FlightAware ADS-B
Sun 04:22:01 PM 34.8830 -81.9700 219° Southwest 256 295 24,000  Level FlightAware ADS-B
Sun 04:22:44 PM 34.8500 -82.0040 220° Southwest 256 295 24,000  Level FlightAware ADS-B
Sun 04:23:23 PM 34.8150 -82.0480 226° Southwest 254 292 24,000  Level FlightAware ADS-B
Sun 04:24:09 PM 34.7820 -82.1060 235° Southwest 253 291 24,000  Level FlightAware ADS-B
Sun 04:24:43 PM 34.7610 -82.1480 239° Southwest 253 291 24,000  Level FlightAware ADS-B
Sun 04:25:33 PM 34.7390 -82.2130 248° West 251 289 24,000  Level FlightAware ADS-B
Sun 04:26:09 PM 34.7260 -82.2610 252° West 251 289 24,000  Level FlightAware ADS-B
Sun 04:26:57 PM 34.7130 -82.3270 257° West 250 288 24,000  Level FlightAware ADS-B
Sun 04:27:39 PM 34.7080 -82.3850 264° West 250 288 24,000  Level FlightAware ADS-B
Sun 04:28:21 PM 34.7040 -82.4440 265° West 250 288 24,000  Level FlightAware ADS-B
Sun 04:29:02 PM 34.7010 -82.5020 266° West 253 291 24,000  Level FlightAware ADS-B
Sun 04:29:52 PM 34.7000 -82.5690 269° West 252 290 24,000  Level FlightAware ADS-B
Sun 04:30:38 PM 34.7060 -82.6350 276° West 253 291 24,000  Level FlightAware ADS-B
Sun 04:31:18 PM 34.7180 -82.6850 286° West 254 292 24,000  Level FlightAware ADS-B
Sun 04:31:57 PM 34.7350 -82.7420 290° West 253 291 24,000  Level FlightAware ADS-B
Sun 04:32:32 PM 34.7490 -82.7840 292° West 255 293 24,000  Level FlightAware ADS-B
Sun 04:33:21 PM 34.7680 -82.8390 293° West 255 293 24,000  Level FlightAware ADS-B
Sun 04:34:03 PM 34.7970 -82.9090 297° West 258 297 24,000  Level FlightAware ADS-B
Sun 04:34:39 PM 34.8190 -82.9540 301° West 259 298 24,000  Level FlightAware ADS-B
Sun 04:35:24 PM 34.8504 -83.0081 305° West 259 298 24,000  Level FlightAware ADS-B
Sun 04:35:29 PM 34.8534 -83.0147 299° West 257 296 24,000  Level FlightAware ADS-B
Sun 04:35:56 PM 34.8681 -83.0489 298° West 259 298 24,000 -105 Level FlightAware ADS-B
Sun 04:36:26 PM 34.8890 -83.0852 305° West 260 299 23,900 -316 Descending FlightAware ADS-B
Sun 04:36:34 PM 34.8962 -83.0923 321° Northwest 276 318 23,800 -1,091 Descending FlightAware ADS-B
Sun 04:36:48 PM 34.9115 -83.1062 323° Northwest 286 329 23,500 -1,000 Descending FlightAware ADS-B
Sun 04:37:04 PM 34.9298 -83.1178 333° Northwest 295 339 23,300 -857 Descending FlightAware ADS-B
Sun 04:37:16 PM 34.9459 -83.1262 337° Northwest 301 346 23,100 -419 Descending FlightAware ADS-B
Sun 04:37:47 PM 34.9850 -83.1443 339° North 294 338 23,000 -103 Descending FlightAware ADS-B
Sun 04:38:14 PM 35.0199 -83.1594 340° North 288 331 23,000  Level FlightAware ADS-B
Sun 04:38:51 PM 35.0666 -83.1766 343° North 282 325 23,000  Level FlightAware ADS-B
Sun 04:39:21 PM 35.1043 -83.1894 344° North 279 321 23,000  Level FlightAware ADS-B
Sun 04:39:51 PM 35.1419 -83.2014 345° North 279 321 23,000  Level FlightAware ADS-B
Sun 04:40:09 PM 35.1645 -83.2088 345° North 279 321 23,000  Level FlightAware ADS-B
Sun 04:40:18 PM 35.1755 -83.2143 338° Northwest 275 316 23,000  Level FlightAware ADS-B
Sun 04:40:29 PM 35.1869 -83.2233 327° Northwest 270 311 23,000 -143 Level FlightAware ADS-B
Sun 04:41:00 PM 35.2163 -83.2524 321° Northwest 272 313 22,900 -689 Descending FlightAware ADS-B
Sun 04:41:30 PM 35.2469 -83.2827 321° Northwest 291 335 22,300 -1,400 Descending FlightAware ADS-B
Sun 04:42:00 PM 35.2793 -83.3155 320° Northwest 308 354 21,500 -1,672 Descending FlightAware ADS-B
Sun 04:42:31 PM 35.3126 -83.3509 319° Northwest 318 366 20,600 -1,692 Descending FlightAware ADS-B
Sun 04:42:39 PM 35.3228 -83.3614 320° Northwest 321 369 20,400 -1,500 Descending FlightAware ADS-B
Sun 04:42:51 PM 35.3362 -83.3735 324° Northwest 324 373 20,100 -1,692 Descending FlightAware ADS-B
Sun 04:43:18 PM 35.3715 -83.4011 327° Northwest 327 376 19,300 -1,759 Descending FlightAware ADS-B
Sun 04:43:49 PM 35.4123 -83.4280 332° Northwest 329 379 18,400 -1,770 Descending FlightAware ADS-B
Sun 04:44:19 PM 35.4528 -83.4543 332° Northwest 327 376 17,500 -2,000 Descending FlightAware ADS-B
Sun 04:44:49 PM 35.4922 -83.4802 332° Northwest 318 366 16,400 -2,400 Descending FlightAware ADS-B
Sun 04:45:19 PM 35.5311 -83.5063 331° Northwest 313 360 15,100 -2,557 Descending FlightAware ADS-B
Sun 04:45:50 PM 35.5691 -83.5324 331° Northwest 308 354 13,800 -2,516 Descending FlightAware ADS-B
Sun 04:46:21 PM 35.6074 -83.5593 330° Northwest 308 354 12,500 -2,262 Descending FlightAware ADS-B
Sun 04:46:51 PM 35.6419 -83.5881 326° Northwest 295 339 11,500 -2,100 Descending FlightAware ADS-B
Sun 04:47:21 PM 35.6759 -83.6158 327° Northwest 286 329 10,400 -2,267 Descending FlightAware ADS-B
Sun 04:47:36 PM 35.6927 -83.6294 327° Northwest 281 323 9,800 -2,129 Descending FlightAware ADS-B
Sun 04:47:52 PM 35.7089 -83.6428 326° Northwest 275 316 9,300 -2,323 Descending FlightAware ADS-B
Sun 04:48:07 PM 35.7248 -83.6560 326° Northwest 273 314 8,600 -2,400 Descending FlightAware ADS-B
Sun 04:48:22 PM 35.7406 -83.6692 326° Northwest 268 308 8,100 -1,355 Descending FlightAware ADS-B
Sun 04:48:38 PM 35.7562 -83.6823 326° Northwest 248 285 7,900 -414 Descending FlightAware ADS-B
Sun 04:48:51 PM 35.7683 -83.6923 326° Northwest 232 267 7,900  Level FlightAware ADS-B
Sun 04:49:00 PM 35.7764 -83.6985 328° Northwest 225 259 7,900  Level FlightAware ADS-B
Sun 04:49:17 PM 35.7913 -83.7079 333° Northwest 212 244 7,900  Level FlightAware ADS-B
Sun 04:49:32 PM 35.8040 -83.7163 332° Northwest 205 236 7,900 200 Level FlightAware ADS-B
Sun 04:49:47 PM 35.8169 -83.7249 332° Northwest 206 237 8,000 200 Climbing FlightAware ADS-B
Sun 04:50:02 PM 35.8299 -83.7336 332° Northwest 212 244 8,000 -375 Level FlightAware ADS-B
Sun 04:50:19 PM 35.8449 -83.7435 332° Northwest 229 264 7,800 -938 Descending FlightAware ADS-B
Sun 04:50:34 PM 35.8599 -83.7534 332° Northwest 245 282 7,500 -1,313 Descending FlightAware ADS-B
Sun 04:50:51 PM 35.8777 -83.7650 332° Northwest 256 295 7,100 -1,448 Descending FlightAware ADS-B
Sun 04:51:03 PM 35.8897 -83.7729 332° Northwest 259 298 6,800 -1,636 Descending FlightAware ADS-B
Sun 04:51:13 PM 35.9000 -83.7804 329° Northwest 259 298 6,500 -1,500 Descending FlightAware ADS-B
Sun 04:51:19 PM 35.9070 -83.7851 331° Northwest 261 300 6,400 -1,636 Descending FlightAware ADS-B
Sun 04:51:24 PM 35.9128 -83.7874 342° North 264 304 6,200 -2,000 Descending FlightAware ADS-B
Sun 04:51:28 PM 35.9177 -83.7883 352° North 266 306 6,100 -1,333 Descending FlightAware ADS-B
Sun 04:51:33 PM 35.9241 -83.7883 360° North 268 308 6,000 -545 Descending FlightAware ADS-B
Sun 04:51:39 PM 35.9305 -83.7868 11° North 268 308 6,000 -667 Level FlightAware ADS-B
Sun 04:51:42 PM 35.9348 -83.7849 20° North 267 307 5,900 -750 Descending FlightAware ADS-B
Sun 04:51:47 PM 35.9395 -83.7819 27° Northeast 265 305 5,900  Level FlightAware ADS-B
Sun 04:51:50 PM 35.9431 -83.7788 35° Northeast 264 304 5,900  Level FlightAware ADS-B
Sun 04:51:53 PM 35.9460 -83.7756 42° Northeast 262 302 5,900 857 Level FlightAware ADS-B
Sun 04:51:57 PM 35.9489 -83.7716 48° Northeast 262 302 6,000 600 Climbing FlightAware ADS-B
Sun 04:52:03 PM 35.9525 -83.7648 57° Northeast 260 299 6,000  Level FlightAware ADS-B
Sun 04:52:09 PM 35.9557 -83.7564 65° Northeast 259 298 6,000  Level FlightAware ADS-B
Sun 04:52:25 PM 35.9635 -83.7345 66° East 256 295 6,000 -194 Level FlightAware ADS-B
Sun 04:52:40 PM 35.9705 -83.7144 67° East 256 295 5,900 -222 Descending FlightAware ADS-B
Sun 04:52:52 PM 35.9762 -83.6979 67° East 256 295 5,900 240 Level FlightAware ADS-B
Sun 04:53:05 PM 35.9818 -83.6814 67° East 256 295 6,000  Climbing FlightAware ADS-B
Sun 04:53:12 PM 35.9853 -83.6713 67° East 257 296 5,900 -545 Descending FlightAware ADS-B
Sun 04:53:16 PM 35.9878 -83.6660 60° Northeast 255 293 5,900  Level FlightAware ADS-B
Sun 04:53:22 PM 35.9918 -83.6600 51° Northeast 252 290 5,900  Level FlightAware ADS-B
Sun 04:53:25 PM 35.9948 -83.6568 41° Northeast 250 288 5,900  Level FlightAware ADS-B
Sun 04:53:29 PM 35.9986 -83.6536 34° Northeast 248 285 5,900  Level FlightAware ADS-B
Sun 04:53:36 PM 36.0062 -83.6497 23° Northeast 243 280 5,900  Level FlightAware ADS-B
Sun 04:53:40 PM 36.0100 -83.6487 12° North 240 276 5,900  Level FlightAware ADS-B
Sun 04:53:43 PM 36.0134 -83.6483 North 238 274 5,900  Level FlightAware ADS-B
Sun 04:53:48 PM 36.0188 -83.6487 357° North 236 272 5,900  Level FlightAware ADS-B
Sun 04:53:55 PM 36.0259 -83.6511 345° North 236 272 5,900 -600 Level FlightAware ADS-B
Sun 04:53:58 PM 36.0293 -83.6530 336° Northwest 238 274 5,800 -1,909 Descending FlightAware ADS-B
Sun 04:54:17 PM 36.0436 -83.6726 312° West 253 291 5,200 -2,000 Descending FlightAware ADS-B
Sun 04:54:22 PM 36.0455 -83.6799 288° West 256 295 5,000 -1,714 Descending FlightAware ADS-B
Sun 04:54:31 PM 36.0464 -83.6925 275° West 260 299 4,800 -1,846 Descending FlightAware ADS-B
Sun 04:54:35 PM 36.0458 -83.6988 263° West 261 300 4,600 -2,000 Descending FlightAware ADS-B
Sun 04:54:40 PM 36.0442 -83.7057 254° West 261 300 4,500 -1,500 Descending FlightAware ADS-B
Sun 04:54:43 PM 36.0426 -83.7102 246° West 262 302 4,400 -1,714 Descending FlightAware ADS-B
Sun 04:54:47 PM 36.0405 -83.7147 240° Southwest 262 302 4,300 -1,714 Descending FlightAware ADS-B
Sun 04:54:50 PM 36.0383 -83.7185 234° Southwest 262 302 4,200 -2,000 Descending FlightAware ADS-B
Sun 04:54:53 PM 36.0358 -83.7220 229° Southwest 263 303 4,100 -706 Descending FlightAware ADS-B
Sun 04:55:07 PM 36.0241 -83.7359 224° Southwest 250 288 4,000 -621 Descending FlightAware ADS-B
Sun 04:55:22 PM 36.0116 -83.7509 224° Southwest 242 278 3,800 -774 Descending FlightAware ADS-B
Sun 04:55:38 PM 35.9985 -83.7663 224° Southwest 236 272 3,600 -774 Descending FlightAware ADS-B
Sun 04:55:53 PM 35.9865 -83.7799 223° Southwest 231 266 3,400 -774 Descending FlightAware ADS-B
Sun 04:56:09 PM 35.9747 -83.7931 222° Southwest 227 261 3,200 -750 Descending FlightAware ADS-B
Sun 04:56:25 PM 35.9622 -83.8069 222° Southwest 222 255 3,000 -194 Descending FlightAware ADS-B
Sun 04:56:40 PM 35.9503 -83.8198 221° Southwest 217 250 3,100  Climbing FlightAware ADS-B
Sun 04:56:48 PM 35.9445 -83.8269 225° Southwest 216 249 3,000 -250 Descending FlightAware ADS-B
Sun 04:57:04 PM 35.9343 -83.8399 226° Southwest 207 238 3,000  Level FlightAware ADS-B
Sun 04:57:19 PM 35.9244 -83.8524 226° Southwest 201 231 3,000  Level FlightAware ADS-B
Sun 04:57:35 PM 35.9132 -83.8660 225° Southwest 203 234 3,000 -182 Level FlightAware ADS-B
Sun 04:57:52 PM 35.9022 -83.8793 224° Southwest 205 236 2,900 -375 Descending FlightAware ADS-B
Sun 04:58:07 PM 35.8921 -83.8915 224° Southwest 201 231 2,800 -387 Descending FlightAware ADS-B
Sun 04:58:23 PM 35.8814 -83.9045 225° Southwest 188 216 2,700 -621 Descending FlightAware ADS-B
Sun 04:58:36 PM 35.8741 -83.9134 225° Southwest 175 201 2,500 -960 Descending FlightAware ADS-B
Sun 04:58:48 PM 35.8673 -83.9219 225° Southwest 160 184 2,300 -889 Descending FlightAware ADS-B
Sun 04:59:03 PM 35.8600 -83.9310 225° Southwest 147 169 2,100 -800 Descending FlightAware ADS-B
Sun 04:59:18 PM 35.8529 -83.9395 224° Southwest 141 162 1,900 -750 Descending FlightAware ADS-B
Sun 04:59:35 PM 35.8453 -83.9488 225° Southwest 138 159 1,700 -677 Descending FlightAware ADS-B
Sun 05:00:20 PM 35.8260 -83.9725 225° Southwest 132 152 1,200 -590 Descending FlightAware ADS-B
Sun 05:00:36 PM 35.8202 -83.9793 224° Southwest 110 127 1,100 -581 Descending FlightAware ADS-B
Sun 05:00:51 PM 35.8148 -83.9860 225° Southwest 101 116 900 -800 Descending FlightAware ADS-B

Login

Don't have an account? Register now (free) for customized features, flight alerts, and more!